createdAt,value
2023-01-29T10:42:35.055Z,6.60
2023-01-29T11:06:16.888Z,6.80
2023-01-29T11:10:37.068Z,6.90
2023-01-29T12:26:31.071Z,7.80
2023-01-29T12:41:39.043Z,7.80
2023-01-29T12:46:27.079Z,7.80
2023-01-29T12:51:20.121Z,7.80
2023-01-29T12:55:34.700Z,7.80
2023-01-29T13:14:28.764Z,7.80
2023-01-29T13:18:53.795Z,7.70
2023-01-29T13:23:22.800Z,7.70
2023-01-29T13:27:40.404Z,7.70
2023-01-29T13:31:54.439Z,7.70
2023-01-29T13:36:03.729Z,7.80
2023-01-29T13:40:24.572Z,7.80
2023-01-29T13:44:39.515Z,7.80
2023-01-29T13:48:55.129Z,7.70
2023-01-29T13:53:07.943Z,7.60
2023-01-29T13:57:55.668Z,7.60
2023-01-29T14:02:24.228Z,7.70
2023-01-29T14:06:47.669Z,7.70
2023-01-29T14:11:35.979Z,7.80
2023-01-29T14:20:38.262Z,7.90
2023-01-29T14:24:59.876Z,7.90
2023-01-29T14:29:33.760Z,7.80
2023-01-29T14:33:48.311Z,7.70
2023-01-29T14:38:14.051Z,7.70
2023-01-29T14:42:30.416Z,7.70
2023-01-29T14:46:51.828Z,7.80
2023-01-29T14:51:13.351Z,7.90
2023-01-29T14:55:42.596Z,7.90
2023-01-29T15:00:10.215Z,7.90
2023-01-29T15:04:26.797Z,7.90
2023-01-29T15:08:47.893Z,7.90
2023-01-29T16:17:47.619Z,7.70
2023-01-29T16:26:41.802Z,7.80
2023-01-29T16:36:37.109Z,7.80
2023-01-29T16:46:44.308Z,7.70
2023-01-29T16:51:31.241Z,7.70
2023-01-29T16:55:46.651Z,7.70
2023-01-29T16:59:59.823Z,7.70
2023-01-29T17:04:21.575Z,7.70
2023-01-29T17:27:44.109Z,7.60
2023-01-29T17:36:39.749Z,7.60
2023-01-29T17:45:40.382Z,7.60
2023-01-29T17:49:51.568Z,7.70
2023-01-29T17:54:01.656Z,7.60
2023-01-29T17:58:18.949Z,7.60
2023-01-29T18:02:30.056Z,7.60
2023-01-29T18:06:40.366Z,7.60
2023-01-29T18:10:50.229Z,7.70
2023-01-29T18:15:00.607Z,7.70
2023-01-29T18:19:21.049Z,7.70
2023-01-29T18:23:31.644Z,7.80
2023-01-29T18:27:41.367Z,7.70
2023-01-29T18:31:51.149Z,7.80
2023-01-29T18:36:05.521Z,7.70
2023-01-29T18:40:17.643Z,7.70
2023-01-29T18:44:30.052Z,7.70
2023-01-29T18:48:41.664Z,7.70
2023-01-29T18:52:54.555Z,7.80
2023-01-29T18:57:13.741Z,7.80
2023-01-29T19:01:25.499Z,7.80
2023-01-29T19:05:35.820Z,7.90
2023-01-29T19:09:47.427Z,7.90
2023-01-29T19:13:56.595Z,7.90
2023-01-29T19:18:07.880Z,8.00
2023-01-29T19:22:17.171Z,8.00
2023-01-29T19:26:27.832Z,8.00
2023-01-29T19:30:37.248Z,8.00
2023-01-29T19:34:46.491Z,8.00
2023-01-29T19:38:55.696Z,8.00
2023-01-29T19:43:06.860Z,8.00
2023-01-29T19:56:09.260Z,8.10
2023-01-29T20:01:09.081Z,8.10
2023-01-29T20:10:18.162Z,8.40
2023-01-29T20:53:30.251Z,8.30
2023-01-29T20:57:40.954Z,8.30
2023-01-29T21:03:06.240Z,8.30
2023-01-29T21:07:16.020Z,8.30
2023-01-29T21:11:27.007Z,8.30
2023-01-29T21:15:36.074Z,8.40
2023-01-29T21:19:47.451Z,8.40
2023-01-29T21:24:03.245Z,8.40
2023-01-29T21:28:14.263Z,8.40
2023-01-29T21:32:23.723Z,8.40
2023-01-29T21:36:33.173Z,8.40
2023-01-29T21:40:42.359Z,8.50
2023-01-29T21:44:53.181Z,8.50
2023-01-29T21:49:05.580Z,8.50
2023-01-29T21:53:19.856Z,8.50
2023-01-29T21:57:30.598Z,8.60
2023-01-29T22:01:44.996Z,8.60
2023-01-29T22:05:54.829Z,8.60
2023-01-29T22:10:04.070Z,8.60
2023-01-29T22:14:13.439Z,8.70
2023-01-29T22:18:24.384Z,8.80
2023-01-29T22:22:33.642Z,8.80
2023-01-29T22:26:43.009Z,8.80
2023-01-29T22:30:54.946Z,8.70
2023-01-29T22:35:07.419Z,8.80
2023-01-29T22:39:16.457Z,8.70
2023-01-29T22:43:26.275Z,8.70
2023-01-29T22:47:35.529Z,8.70
2023-01-29T22:51:47.134Z,8.70
2023-01-29T22:55:56.342Z,8.70
2023-01-29T23:00:07.703Z,8.70
2023-01-29T23:04:16.878Z,8.70
2023-01-29T23:08:27.607Z,8.80
2023-01-29T23:12:36.787Z,8.90
2023-01-29T23:16:45.987Z,9.00
2023-01-29T23:20:59.087Z,8.90
2023-01-29T23:25:11.015Z,9.00
2023-01-29T23:29:20.020Z,8.90
2023-01-29T23:33:29.235Z,9.00
2023-01-29T23:37:38.275Z,9.00
2023-01-29T23:41:49.912Z,9.00
2023-01-29T23:45:59.276Z,9.10
2023-01-29T23:50:09.719Z,9.00
2023-01-29T23:54:19.225Z,9.10
2023-01-29T23:58:31.090Z,9.10
